sensor_id;sensor_type;location;lat;lon;timestamp;temperature;humidity
21403;DHT22;10862;51.886;17.078;2022-10-15T00:00:42;11.80;99.90
21403;DHT22;10862;51.886;17.078;2022-10-15T00:03:07;11.80;99.90
21403;DHT22;10862;51.886;17.078;2022-10-15T00:05:35;11.80;99.90
21403;DHT22;10862;51.886;17.078;2022-10-15T00:08:00;11.80;99.90
21403;DHT22;10862;51.886;17.078;2022-10-15T00:10:26;11.80;99.90
21403;DHT22;10862;51.886;17.078;2022-10-15T00:12:51;11.70;99.90
21403;DHT22;10862;51.886;17.078;2022-10-15T00:15:17;11.70;99.90
21403;DHT22;10862;51.886;17.078;2022-10-15T00:17:42;11.70;99.90
21403;DHT22;10862;51.886;17.078;2022-10-15T00:20:09;11.70;99.90
21403;DHT22;10862;51.886;17.078;2022-10-15T00:22:35;11.70;99.90
21403;DHT22;10862;51.886;17.078;2022-10-15T00:25:01;11.70;99.90
21403;DHT22;10862;51.886;17.078;2022-10-15T00:27:26;11.60;99.90
21403;DHT22;10862;51.886;17.078;2022-10-15T00:29:52;11.60;99.90
21403;DHT22;10862;51.886;17.078;2022-10-15T00:32:17;11.60;99.90
21403;DHT22;10862;51.886;17.078;2022-10-15T00:34:43;11.50;99.90
21403;DHT22;10862;51.886;17.078;2022-10-15T00:37:08;11.50;99.90
21403;DHT22;10862;51.886;17.078;2022-10-15T00:39:34;11.40;99.90
21403;DHT22;10862;51.886;17.078;2022-10-15T00:42:00;11.40;99.90
21403;DHT22;10862;51.886;17.078;2022-10-15T00:47:17;11.30;99.90
21403;DHT22;10862;51.886;17.078;2022-10-15T00:49:42;11.20;99.90
21403;DHT22;10862;51.886;17.078;2022-10-15T00:52:13;11.20;99.90
21403;DHT22;10862;51.886;17.078;2022-10-15T00:54:41;11.20;99.90
21403;DHT22;10862;51.886;17.078;2022-10-15T00:57:08;11.20;99.90
21403;DHT22;10862;51.886;17.078;2022-10-15T00:59:35;11.20;99.90
21403;DHT22;10862;51.886;17.078;2022-10-15T01:02:02;11.10;99.90
21403;DHT22;10862;51.886;17.078;2022-10-15T01:04:28;11.10;99.90
21403;DHT22;10862;51.886;17.078;2022-10-15T01:06:54;11.00;99.90
21403;DHT22;10862;51.886;17.078;2022-10-15T01:09:20;11.10;99.90
21403;DHT22;10862;51.886;17.078;2022-10-15T01:11:47;11.10;99.90
21403;DHT22;10862;51.886;17.078;2022-10-15T01:14:22;11.00;99.90
21403;DHT22;10862;51.886;17.078;2022-10-15T01:21:55;11.00;99.90
21403;DHT22;10862;51.886;17.078;2022-10-15T01:29:57;11.10;99.90
21403;DHT22;10862;51.886;17.078;2022-10-15T01:32:27;11.10;99.90
21403;DHT22;10862;51.886;17.078;2022-10-15T01:34:55;11.10;99.90
21403;DHT22;10862;51.886;17.078;2022-10-15T01:40:00;11.10;99.90
21403;DHT22;10862;51.886;17.078;2022-10-15T01:42:29;11.10;99.90
21403;DHT22;10862;51.886;17.078;2022-10-15T01:44:58;11.20;99.90
21403;DHT22;10862;51.886;17.078;2022-10-15T01:47:27;11.20;99.90
21403;DHT22;10862;51.886;17.078;2022-10-15T01:49:54;11.20;99.90
21403;DHT22;10862;51.886;17.078;2022-10-15T01:52:22;11.20;99.90
21403;DHT22;10862;51.886;17.078;2022-10-15T01:54:49;11.30;99.90
21403;DHT22;10862;51.886;17.078;2022-10-15T01:57:17;11.30;99.90
21403;DHT22;10862;51.886;17.078;2022-10-15T01:59:43;11.40;99.90
21403;DHT22;10862;51.886;17.078;2022-10-15T02:02:09;11.50;99.90
21403;DHT22;10862;51.886;17.078;2022-10-15T02:04:35;11.50;99.90
21403;DHT22;10862;51.886;17.078;2022-10-15T02:07:10;11.60;99.90
21403;DHT22;10862;51.886;17.078;2022-10-15T02:12:19;11.60;99.90
21403;DHT22;10862;51.886;17.078;2022-10-15T02:17:40;11.70;99.90
21403;DHT22;10862;51.886;17.078;2022-10-15T02:20:11;11.70;99.90
21403;DHT22;10862;51.886;17.078;2022-10-15T02:22:40;11.70;99.90
21403;DHT22;10862;51.886;17.078;2022-10-15T02:25:09;11.70;99.90
21403;DHT22;10862;51.886;17.078;2022-10-15T02:27:37;11.70;99.90
21403;DHT22;10862;51.886;17.078;2022-10-15T02:30:04;11.70;99.90
21403;DHT22;10862;51.886;17.078;2022-10-15T02:32:31;11.70;99.90
21403;DHT22;10862;51.886;17.078;2022-10-15T02:34:57;11.70;99.90
21403;DHT22;10862;51.886;17.078;2022-10-15T02:37:24;11.70;99.90
21403;DHT22;10862;51.886;17.078;2022-10-15T02:39:51;11.70;99.90
21403;DHT22;10862;51.886;17.078;2022-10-15T02:42:16;11.80;99.90
21403;DHT22;10862;51.886;17.078;2022-10-15T02:44:42;11.70;99.90
21403;DHT22;10862;51.886;17.078;2022-10-15T02:47:08;11.80;99.90
21403;DHT22;10862;51.886;17.078;2022-10-15T02:49:34;11.60;99.90
21403;DHT22;10862;51.886;17.078;2022-10-15T02:51:59;11.60;99.90
21403;DHT22;10862;51.886;17.078;2022-10-15T02:54:25;11.60;99.90
21403;DHT22;10862;51.886;17.078;2022-10-15T02:56:50;11.60;99.90
21403;DHT22;10862;51.886;17.078;2022-10-15T02:59:16;11.50;99.90
21403;DHT22;10862;51.886;17.078;2022-10-15T03:01:43;11.60;99.90
21403;DHT22;10862;51.886;17.078;2022-10-15T03:04:08;11.50;99.90
21403;DHT22;10862;51.886;17.078;2022-10-15T03:06:34;11.50;99.90
21403;DHT22;10862;51.886;17.078;2022-10-15T03:08:59;11.50;99.90
21403;DHT22;10862;51.886;17.078;2022-10-15T03:11:25;11.50;99.90
21403;DHT22;10862;51.886;17.078;2022-10-15T03:13:50;11.50;99.90
21403;DHT22;10862;51.886;17.078;2022-10-15T03:16:16;11.40;99.90
21403;DHT22;10862;51.886;17.078;2022-10-15T03:18:42;11.40;99.90
21403;DHT22;10862;51.886;17.078;2022-10-15T03:21:07;11.40;99.90
21403;DHT22;10862;51.886;17.078;2022-10-15T03:23:33;11.40;99.90
21403;DHT22;10862;51.886;17.078;2022-10-15T03:25:58;11.30;99.90
21403;DHT22;10862;51.886;17.078;2022-10-15T03:28:24;11.30;99.90
21403;DHT22;10862;51.886;17.078;2022-10-15T03:30:49;11.30;99.90
21403;DHT22;10862;51.886;17.078;2022-10-15T03:33:14;11.30;99.90
21403;DHT22;10862;51.886;17.078;2022-10-15T03:35:40;11.30;99.90
21403;DHT22;10862;51.886;17.078;2022-10-15T03:38:06;11.20;99.90
21403;DHT22;10862;51.886;17.078;2022-10-15T03:40:32;11.20;99.90
21403;DHT22;10862;51.886;17.078;2022-10-15T03:42:58;11.10;99.90
21403;DHT22;10862;51.886;17.078;2022-10-15T03:45:23;11.10;99.90
21403;DHT22;10862;51.886;17.078;2022-10-15T03:47:49;11.10;99.90
21403;DHT22;10862;51.886;17.078;2022-10-15T03:50:15;11.10;99.90
21403;DHT22;10862;51.886;17.078;2022-10-15T03:52:41;11.10;99.90
21403;DHT22;10862;51.886;17.078;2022-10-15T03:55:07;11.10;99.90
21403;DHT22;10862;51.886;17.078;2022-10-15T03:57:33;11.20;99.90
21403;DHT22;10862;51.886;17.078;2022-10-15T03:59:59;11.20;99.90
21403;DHT22;10862;51.886;17.078;2022-10-15T04:02:24;11.20;99.90
21403;DHT22;10862;51.886;17.078;2022-10-15T04:04:51;11.20;99.90
21403;DHT22;10862;51.886;17.078;2022-10-15T04:07:17;11.30;99.90
21403;DHT22;10862;51.886;17.078;2022-10-15T04:09:43;11.30;99.90
21403;DHT22;10862;51.886;17.078;2022-10-15T04:12:08;11.50;99.90
21403;DHT22;10862;51.886;17.078;2022-10-15T04:14:34;11.40;99.90
21403;DHT22;10862;51.886;17.078;2022-10-15T04:16:59;11.40;99.90
21403;DHT22;10862;51.886;17.078;2022-10-15T04:19:25;11.40;99.90
21403;DHT22;10862;51.886;17.078;2022-10-15T04:21:50;11.40;99.90
21403;DHT22;10862;51.886;17.078;2022-10-15T04:24:16;11.40;99.90
21403;DHT22;10862;51.886;17.078;2022-10-15T04:26:41;11.40;99.90
21403;DHT22;10862;51.886;17.078;2022-10-15T04:29:07;11.50;99.90
21403;DHT22;10862;51.886;17.078;2022-10-15T04:31:32;11.40;99.90
21403;DHT22;10862;51.886;17.078;2022-10-15T04:33:58;11.40;99.90
21403;DHT22;10862;51.886;17.078;2022-10-15T04:36:23;11.40;99.90
21403;DHT22;10862;51.886;17.078;2022-10-15T04:38:49;11.50;99.90
21403;DHT22;10862;51.886;17.078;2022-10-15T04:41:14;11.50;99.90
21403;DHT22;10862;51.886;17.078;2022-10-15T04:43:40;11.60;99.90
21403;DHT22;10862;51.886;17.078;2022-10-15T04:46:05;11.50;99.90
21403;DHT22;10862;51.886;17.078;2022-10-15T04:48:32;11.50;99.90
21403;DHT22;10862;51.886;17.078;2022-10-15T04:51:17;11.50;99.90
21403;DHT22;10862;51.886;17.078;2022-10-15T04:53:43;11.50;99.90
21403;DHT22;10862;51.886;17.078;2022-10-15T04:56:09;11.50;99.90
21403;DHT22;10862;51.886;17.078;2022-10-15T04:58:36;11.50;99.90
21403;DHT22;10862;51.886;17.078;2022-10-15T05:01:02;11.50;99.90
21403;DHT22;10862;51.886;17.078;2022-10-15T05:03:28;11.50;99.90
21403;DHT22;10862;51.886;17.078;2022-10-15T05:05:58;11.50;99.90
21403;DHT22;10862;51.886;17.078;2022-10-15T05:08:24;11.70;99.90
21403;DHT22;10862;51.886;17.078;2022-10-15T05:10:50;11.50;99.90
21403;DHT22;10862;51.886;17.078;2022-10-15T05:13:15;11.60;99.90
21403;DHT22;10862;51.886;17.078;2022-10-15T05:15:41;11.60;99.90
21403;DHT22;10862;51.886;17.078;2022-10-15T05:18:06;11.70;99.90
21403;DHT22;10862;51.886;17.078;2022-10-15T05:20:32;11.70;99.90
21403;DHT22;10862;51.886;17.078;2022-10-15T05:22:57;11.70;99.90
21403;DHT22;10862;51.886;17.078;2022-10-15T05:25:23;11.80;99.90
21403;DHT22;10862;51.886;17.078;2022-10-15T05:27:48;11.80;99.90
21403;DHT22;10862;51.886;17.078;2022-10-15T05:30:14;11.80;99.90
21403;DHT22;10862;51.886;17.078;2022-10-15T05:32:39;11.80;99.90
21403;DHT22;10862;51.886;17.078;2022-10-15T05:35:05;11.80;99.90
21403;DHT22;10862;51.886;17.078;2022-10-15T05:37:30;11.90;99.90
21403;DHT22;10862;51.886;17.078;2022-10-15T05:39:56;11.90;99.90
21403;DHT22;10862;51.886;17.078;2022-10-15T05:42:21;11.80;99.90
21403;DHT22;10862;51.886;17.078;2022-10-15T05:44:47;11.80;99.90
21403;DHT22;10862;51.886;17.078;2022-10-15T05:47:12;11.70;99.90
21403;DHT22;10862;51.886;17.078;2022-10-15T05:49:38;11.70;99.90
21403;DHT22;10862;51.886;17.078;2022-10-15T05:52:03;11.80;99.90
21403;DHT22;10862;51.886;17.078;2022-10-15T05:54:29;11.70;99.90
21403;DHT22;10862;51.886;17.078;2022-10-15T05:56:54;11.80;99.90
21403;DHT22;10862;51.886;17.078;2022-10-15T05:59:20;11.80;99.90
21403;DHT22;10862;51.886;17.078;2022-10-15T06:01:45;11.80;99.90
21403;DHT22;10862;51.886;17.078;2022-10-15T06:04:11;11.90;99.90
21403;DHT22;10862;51.886;17.078;2022-10-15T06:06:36;11.90;99.90
21403;DHT22;10862;51.886;17.078;2022-10-15T06:09:02;12.00;99.90
21403;DHT22;10862;51.886;17.078;2022-10-15T06:11:27;12.00;99.90
21403;DHT22;10862;51.886;17.078;2022-10-15T06:13:53;12.00;99.90
21403;DHT22;10862;51.886;17.078;2022-10-15T06:16:18;11.90;99.90
21403;DHT22;10862;51.886;17.078;2022-10-15T06:18:44;11.90;99.90
21403;DHT22;10862;51.886;17.078;2022-10-15T06:21:10;11.90;99.90
21403;DHT22;10862;51.886;17.078;2022-10-15T06:23:35;12.00;99.90
21403;DHT22;10862;51.886;17.078;2022-10-15T06:26:04;12.00;99.90
21403;DHT22;10862;51.886;17.078;2022-10-15T06:28:30;11.90;99.90
21403;DHT22;10862;51.886;17.078;2022-10-15T06:30:56;11.90;99.90
21403;DHT22;10862;51.886;17.078;2022-10-15T06:33:22;11.90;99.90
21403;DHT22;10862;51.886;17.078;2022-10-15T06:35:47;11.90;99.90
21403;DHT22;10862;51.886;17.078;2022-10-15T06:38:13;11.80;99.90
21403;DHT22;10862;51.886;17.078;2022-10-15T06:40:38;11.90;99.90
21403;DHT22;10862;51.886;17.078;2022-10-15T06:43:05;11.90;99.90
21403;DHT22;10862;51.886;17.078;2022-10-15T06:45:32;12.00;99.90
21403;DHT22;10862;51.886;17.078;2022-10-15T06:47:58;12.00;99.90
21403;DHT22;10862;51.886;17.078;2022-10-15T06:50:23;12.00;99.90
21403;DHT22;10862;51.886;17.078;2022-10-15T06:52:49;11.90;99.90
21403;DHT22;10862;51.886;17.078;2022-10-15T06:55:14;12.00;99.90
21403;DHT22;10862;51.886;17.078;2022-10-15T06:57:40;12.00;99.90
21403;DHT22;10862;51.886;17.078;2022-10-15T07:00:05;12.10;99.90
21403;DHT22;10862;51.886;17.078;2022-10-15T07:02:31;12.10;99.90
21403;DHT22;10862;51.886;17.078;2022-10-15T07:04:58;12.10;99.90
21403;DHT22;10862;51.886;17.078;2022-10-15T07:07:24;12.20;99.90
21403;DHT22;10862;51.886;17.078;2022-10-15T07:09:50;12.20;99.90
21403;DHT22;10862;51.886;17.078;2022-10-15T07:12:17;12.20;99.90
21403;DHT22;10862;51.886;17.078;2022-10-15T07:14:46;12.20;99.90
21403;DHT22;10862;51.886;17.078;2022-10-15T07:17:12;12.40;99.90
21403;DHT22;10862;51.886;17.078;2022-10-15T07:19:37;12.40;99.90
21403;DHT22;10862;51.886;17.078;2022-10-15T07:22:03;12.40;99.90
21403;DHT22;10862;51.886;17.078;2022-10-15T07:24:28;12.30;99.90
21403;DHT22;10862;51.886;17.078;2022-10-15T07:26:54;12.40;99.90
21403;DHT22;10862;51.886;17.078;2022-10-15T07:29:19;12.50;99.90
21403;DHT22;10862;51.886;17.078;2022-10-15T07:31:45;12.40;99.90
21403;DHT22;10862;51.886;17.078;2022-10-15T07:34:11;12.50;99.90
21403;DHT22;10862;51.886;17.078;2022-10-15T07:36:36;12.50;99.90
21403;DHT22;10862;51.886;17.078;2022-10-15T07:39:02;12.60;99.90
21403;DHT22;10862;51.886;17.078;2022-10-15T07:41:29;12.70;99.90
21403;DHT22;10862;51.886;17.078;2022-10-15T07:43:54;12.50;99.90
21403;DHT22;10862;51.886;17.078;2022-10-15T07:46:20;12.70;99.90
21403;DHT22;10862;51.886;17.078;2022-10-15T07:48:45;12.80;99.90
21403;DHT22;10862;51.886;17.078;2022-10-15T07:51:11;12.90;99.90
21403;DHT22;10862;51.886;17.078;2022-10-15T07:53:36;13.00;99.90
21403;DHT22;10862;51.886;17.078;2022-10-15T07:56:03;13.10;99.90
21403;DHT22;10862;51.886;17.078;2022-10-15T07:58:28;13.10;99.90
21403;DHT22;10862;51.886;17.078;2022-10-15T08:00:58;13.30;99.90
21403;DHT22;10862;51.886;17.078;2022-10-15T08:03:23;13.30;99.90
21403;DHT22;10862;51.886;17.078;2022-10-15T08:05:49;13.40;99.90
21403;DHT22;10862;51.886;17.078;2022-10-15T08:08:17;13.50;99.90
21403;DHT22;10862;51.886;17.078;2022-10-15T08:10:44;13.50;99.90
21403;DHT22;10862;51.886;17.078;2022-10-15T08:13:09;13.70;99.90
21403;DHT22;10862;51.886;17.078;2022-10-15T08:15:37;13.80;99.90
21403;DHT22;10862;51.886;17.078;2022-10-15T08:18:02;13.90;99.90
21403;DHT22;10862;51.886;17.078;2022-10-15T08:20:28;13.90;99.90
21403;DHT22;10862;51.886;17.078;2022-10-15T08:22:54;14.10;99.90
21403;DHT22;10862;51.886;17.078;2022-10-15T08:25:19;13.90;99.90
21403;DHT22;10862;51.886;17.078;2022-10-15T08:27:45;13.90;99.90
21403;DHT22;10862;51.886;17.078;2022-10-15T08:30:10;13.80;99.90
21403;DHT22;10862;51.886;17.078;2022-10-15T08:32:36;13.70;99.90
21403;DHT22;10862;51.886;17.078;2022-10-15T08:35:01;13.80;99.90
21403;DHT22;10862;51.886;17.078;2022-10-15T08:37:27;13.90;99.90
21403;DHT22;10862;51.886;17.078;2022-10-15T08:39:52;14.00;99.90
21403;DHT22;10862;51.886;17.078;2022-10-15T08:42:19;14.10;99.90
21403;DHT22;10862;51.886;17.078;2022-10-15T08:44:49;14.20;99.90
21403;DHT22;10862;51.886;17.078;2022-10-15T08:47:26;14.40;99.90
21403;DHT22;10862;51.886;17.078;2022-10-15T08:49:53;14.60;99.90
21403;DHT22;10862;51.886;17.078;2022-10-15T08:52:34;15.00;99.90
21403;DHT22;10862;51.886;17.078;2022-10-15T08:55:04;15.40;99.90
21403;DHT22;10862;51.886;17.078;2022-10-15T09:00:03;15.60;99.90
21403;DHT22;10862;51.886;17.078;2022-10-15T09:02:37;15.80;99.90
21403;DHT22;10862;51.886;17.078;2022-10-15T09:07:52;16.60;99.90
21403;DHT22;10862;51.886;17.078;2022-10-15T09:13:00;16.10;99.90
21403;DHT22;10862;51.886;17.078;2022-10-15T09:15:27;15.90;99.90
21403;DHT22;10862;51.886;17.078;2022-10-15T09:17:55;15.60;99.90
21403;DHT22;10862;51.886;17.078;2022-10-15T09:20:30;15.40;99.90
21403;DHT22;10862;51.886;17.078;2022-10-15T09:22:56;15.20;99.90
21403;DHT22;10862;51.886;17.078;2022-10-15T09:25:22;15.30;99.90
21403;DHT22;10862;51.886;17.078;2022-10-15T09:27:48;15.40;99.90
21403;DHT22;10862;51.886;17.078;2022-10-15T09:32:50;15.30;99.90
21403;DHT22;10862;51.886;17.078;2022-10-15T09:35:19;15.20;99.90
21403;DHT22;10862;51.886;17.078;2022-10-15T09:37:53;15.10;99.90
21403;DHT22;10862;51.886;17.078;2022-10-15T09:42:58;15.00;99.90
21403;DHT22;10862;51.886;17.078;2022-10-15T09:45:24;14.90;99.90
21403;DHT22;10862;51.886;17.078;2022-10-15T09:47:50;14.90;99.90
21403;DHT22;10862;51.886;17.078;2022-10-15T09:50:16;14.90;99.90
21403;DHT22;10862;51.886;17.078;2022-10-15T09:52:55;15.00;99.90
21403;DHT22;10862;51.886;17.078;2022-10-15T09:57:54;15.10;99.90
21403;DHT22;10862;51.886;17.078;2022-10-15T10:00:20;15.10;99.90
21403;DHT22;10862;51.886;17.078;2022-10-15T10:03:05;15.00;99.90
21403;DHT22;10862;51.886;17.078;2022-10-15T10:05:32;15.00;99.90
21403;DHT22;10862;51.886;17.078;2022-10-15T10:08:15;15.00;99.90
21403;DHT22;10862;51.886;17.078;2022-10-15T10:10:43;15.10;99.90
21403;DHT22;10862;51.886;17.078;2022-10-15T10:13:19;15.20;99.90
21403;DHT22;10862;51.886;17.078;2022-10-15T10:15:46;15.20;99.90
21403;DHT22;10862;51.886;17.078;2022-10-15T10:18:22;15.10;99.90
21403;DHT22;10862;51.886;17.078;2022-10-15T10:20:55;15.10;99.90
21403;DHT22;10862;51.886;17.078;2022-10-15T10:23:28;15.10;99.90
21403;DHT22;10862;51.886;17.078;2022-10-15T10:25:57;15.20;99.90
21403;DHT22;10862;51.886;17.078;2022-10-15T10:28:28;15.20;99.90
21403;DHT22;10862;51.886;17.078;2022-10-15T10:35:56;15.20;99.90
21403;DHT22;10862;51.886;17.078;2022-10-15T10:38:22;15.20;99.90
21403;DHT22;10862;51.886;17.078;2022-10-15T10:40:51;15.20;99.90
21403;DHT22;10862;51.886;17.078;2022-10-15T10:45:57;15.30;99.90
21403;DHT22;10862;51.886;17.078;2022-10-15T10:48:27;15.30;99.90
21403;DHT22;10862;51.886;17.078;2022-10-15T10:51:07;15.30;99.90
21403;DHT22;10862;51.886;17.078;2022-10-15T10:53:33;15.20;99.90
21403;DHT22;10862;51.886;17.078;2022-10-15T10:55:59;15.20;99.90
21403;DHT22;10862;51.886;17.078;2022-10-15T10:58:26;15.20;99.90
21403;DHT22;10862;51.886;17.078;2022-10-15T11:00:52;15.20;99.90
21403;DHT22;10862;51.886;17.078;2022-10-15T11:05:49;15.30;99.90
21403;DHT22;10862;51.886;17.078;2022-10-15T11:10:55;15.40;99.90
21403;DHT22;10862;51.886;17.078;2022-10-15T11:16:01;15.60;99.90
21403;DHT22;10862;51.886;17.078;2022-10-15T11:21:09;15.70;99.90
21403;DHT22;10862;51.886;17.078;2022-10-15T11:23:49;15.60;99.90
21403;DHT22;10862;51.886;17.078;2022-10-15T11:26:36;15.50;99.90
21403;DHT22;10862;51.886;17.078;2022-10-15T11:29:09;15.60;99.90
21403;DHT22;10862;51.886;17.078;2022-10-15T11:31:47;15.70;99.90
21403;DHT22;10862;51.886;17.078;2022-10-15T11:34:18;15.70;99.90
21403;DHT22;10862;51.886;17.078;2022-10-15T11:42:03;15.70;99.90
21403;DHT22;10862;51.886;17.078;2022-10-15T11:44:36;15.70;99.90
21403;DHT22;10862;51.886;17.078;2022-10-15T11:47:07;15.90;99.90
21403;DHT22;10862;51.886;17.078;2022-10-15T11:49:42;15.80;99.90
21403;DHT22;10862;51.886;17.078;2022-10-15T11:54:42;15.70;99.90
21403;DHT22;10862;51.886;17.078;2022-10-15T11:57:10;15.70;99.90
21403;DHT22;10862;51.886;17.078;2022-10-15T12:02:27;15.80;99.90
21403;DHT22;10862;51.886;17.078;2022-10-15T12:04:54;15.70;99.90
21403;DHT22;10862;51.886;17.078;2022-10-15T12:07:22;15.80;99.90
21403;DHT22;10862;51.886;17.078;2022-10-15T12:09:52;15.90;99.90
21403;DHT22;10862;51.886;17.078;2022-10-15T12:12:36;16.00;99.90
21403;DHT22;10862;51.886;17.078;2022-10-15T12:17:45;16.10;99.90
21403;DHT22;10862;51.886;17.078;2022-10-15T12:20:15;16.20;99.90
21403;DHT22;10862;51.886;17.078;2022-10-15T12:30:25;16.20;99.90
21403;DHT22;10862;51.886;17.078;2022-10-15T12:32:51;16.40;99.90
21403;DHT22;10862;51.886;17.078;2022-10-15T12:35:18;16.50;99.90
21403;DHT22;10862;51.886;17.078;2022-10-15T12:37:45;16.60;99.90
21403;DHT22;10862;51.886;17.078;2022-10-15T12:40:32;16.70;99.90
21403;DHT22;10862;51.886;17.078;2022-10-15T12:43:05;16.60;99.90
21403;DHT22;10862;51.886;17.078;2022-10-15T12:45:37;16.60;99.90
21403;DHT22;10862;51.886;17.078;2022-10-15T12:50:29;16.70;99.90
21403;DHT22;10862;51.886;17.078;2022-10-15T12:55:23;16.90;99.90
21403;DHT22;10862;51.886;17.078;2022-10-15T12:57:49;17.00;99.90
21403;DHT22;10862;51.886;17.078;2022-10-15T13:02:49;17.10;99.90
21403;DHT22;10862;51.886;17.078;2022-10-15T13:07:50;17.10;99.90
21403;DHT22;10862;51.886;17.078;2022-10-15T13:10:29;17.10;99.90
21403;DHT22;10862;51.886;17.078;2022-10-15T13:12:58;17.10;99.90
21403;DHT22;10862;51.886;17.078;2022-10-15T13:15:25;17.10;99.90
21403;DHT22;10862;51.886;17.078;2022-10-15T13:17:51;17.10;99.90
21403;DHT22;10862;51.886;17.078;2022-10-15T13:20:59;17.10;99.90
21403;DHT22;10862;51.886;17.078;2022-10-15T13:23:07;17.10;99.90
21403;DHT22;10862;51.886;17.078;2022-10-15T13:25:33;17.10;99.90
21403;DHT22;10862;51.886;17.078;2022-10-15T13:27:58;17.10;99.90
21403;DHT22;10862;51.886;17.078;2022-10-15T13:30:24;17.00;99.90
21403;DHT22;10862;51.886;17.078;2022-10-15T13:32:50;17.00;99.90
21403;DHT22;10862;51.886;17.078;2022-10-15T13:35:23;17.10;99.90
21403;DHT22;10862;51.886;17.078;2022-10-15T13:37:50;17.10;99.90
21403;DHT22;10862;51.886;17.078;2022-10-15T13:40:20;17.10;99.90
21403;DHT22;10862;51.886;17.078;2022-10-15T13:43:03;17.00;99.90
21403;DHT22;10862;51.886;17.078;2022-10-15T13:45:29;17.10;99.90
21403;DHT22;10862;51.886;17.078;2022-10-15T13:47:54;17.10;99.90
21403;DHT22;10862;51.886;17.078;2022-10-15T13:52:51;17.10;99.90
21403;DHT22;10862;51.886;17.078;2022-10-15T13:55:31;17.00;99.90
21403;DHT22;10862;51.886;17.078;2022-10-15T13:57:59;17.10;99.90
21403;DHT22;10862;51.886;17.078;2022-10-15T14:00:31;17.20;99.90
21403;DHT22;10862;51.886;17.078;2022-10-15T14:03:07;17.20;99.90
21403;DHT22;10862;51.886;17.078;2022-10-15T14:05:32;17.30;99.90
21403;DHT22;10862;51.886;17.078;2022-10-15T14:07:58;17.40;99.90
21403;DHT22;10862;51.886;17.078;2022-10-15T14:10:23;17.40;99.90
21403;DHT22;10862;51.886;17.078;2022-10-15T14:12:49;17.40;99.90
21403;DHT22;10862;51.886;17.078;2022-10-15T14:18:00;17.30;99.90
21403;DHT22;10862;51.886;17.078;2022-10-15T14:20:26;17.30;99.90
21403;DHT22;10862;51.886;17.078;2022-10-15T14:22:51;17.30;99.90
21403;DHT22;10862;51.886;17.078;2022-10-15T14:25:19;17.10;99.90
21403;DHT22;10862;51.886;17.078;2022-10-15T14:27:46;17.20;99.90
21403;DHT22;10862;51.886;17.078;2022-10-15T14:30:13;17.10;99.90
21403;DHT22;10862;51.886;17.078;2022-10-15T14:32:46;17.00;99.90
21403;DHT22;10862;51.886;17.078;2022-10-15T14:40:24;16.80;99.90
21403;DHT22;10862;51.886;17.078;2022-10-15T14:45:28;16.90;99.90
21403;DHT22;10862;51.886;17.078;2022-10-15T14:47:56;16.80;99.90
21403;DHT22;10862;51.886;17.078;2022-10-15T14:50:23;16.80;99.90
21403;DHT22;10862;51.886;17.078;2022-10-15T14:52:50;16.80;99.90
21403;DHT22;10862;51.886;17.078;2022-10-15T14:57:47;16.80;99.90
21403;DHT22;10862;51.886;17.078;2022-10-15T15:00:16;16.80;99.90
21403;DHT22;10862;51.886;17.078;2022-10-15T15:02:45;16.80;99.90
21403;DHT22;10862;51.886;17.078;2022-10-15T15:07:36;16.70;99.90
21403;DHT22;10862;51.886;17.078;2022-10-15T15:10:03;16.60;99.90
21403;DHT22;10862;51.886;17.078;2022-10-15T15:12:28;16.70;99.90
21403;DHT22;10862;51.886;17.078;2022-10-15T15:14:55;16.60;99.90
21403;DHT22;10862;51.886;17.078;2022-10-15T15:17:22;16.60;99.90
21403;DHT22;10862;51.886;17.078;2022-10-15T15:19:48;16.60;99.90
21403;DHT22;10862;51.886;17.078;2022-10-15T15:22:15;16.50;99.90
21403;DHT22;10862;51.886;17.078;2022-10-15T15:24:42;16.50;99.90
21403;DHT22;10862;51.886;17.078;2022-10-15T15:27:10;16.50;99.90
21403;DHT22;10862;51.886;17.078;2022-10-15T15:29:38;16.40;99.90
21403;DHT22;10862;51.886;17.078;2022-10-15T15:32:03;16.40;99.90
21403;DHT22;10862;51.886;17.078;2022-10-15T15:34:29;16.40;99.90
21403;DHT22;10862;51.886;17.078;2022-10-15T15:36:54;16.40;99.90
21403;DHT22;10862;51.886;17.078;2022-10-15T15:39:20;16.30;99.90
21403;DHT22;10862;51.886;17.078;2022-10-15T15:41:45;16.30;99.90
21403;DHT22;10862;51.886;17.078;2022-10-15T15:44:11;16.30;99.90
21403;DHT22;10862;51.886;17.078;2022-10-15T15:46:36;16.30;99.90
21403;DHT22;10862;51.886;17.078;2022-10-15T15:49:02;16.30;99.90
21403;DHT22;10862;51.886;17.078;2022-10-15T15:51:28;16.30;99.90
21403;DHT22;10862;51.886;17.078;2022-10-15T15:53:54;16.30;99.90
21403;DHT22;10862;51.886;17.078;2022-10-15T15:56:20;16.30;99.90
21403;DHT22;10862;51.886;17.078;2022-10-15T15:58:46;16.20;99.90
21403;DHT22;10862;51.886;17.078;2022-10-15T16:01:18;16.30;99.90
21403;DHT22;10862;51.886;17.078;2022-10-15T16:03:43;16.20;99.90
21403;DHT22;10862;51.886;17.078;2022-10-15T16:06:09;16.20;99.90
21403;DHT22;10862;51.886;17.078;2022-10-15T16:08:35;16.20;99.90
21403;DHT22;10862;51.886;17.078;2022-10-15T16:11:02;16.20;99.90
21403;DHT22;10862;51.886;17.078;2022-10-15T16:13:27;16.10;99.90
21403;DHT22;10862;51.886;17.078;2022-10-15T16:15:53;16.20;99.90
21403;DHT22;10862;51.886;17.078;2022-10-15T16:18:19;16.10;99.90
21403;DHT22;10862;51.886;17.078;2022-10-15T16:20:44;16.10;99.90
21403;DHT22;10862;51.886;17.078;2022-10-15T16:23:10;16.00;99.90
21403;DHT22;10862;51.886;17.078;2022-10-15T16:25:35;16.00;99.90
21403;DHT22;10862;51.886;17.078;2022-10-15T16:28:01;16.00;99.90
21403;DHT22;10862;51.886;17.078;2022-10-15T16:30:26;16.00;99.90
21403;DHT22;10862;51.886;17.078;2022-10-15T16:32:52;15.90;99.90
21403;DHT22;10862;51.886;17.078;2022-10-15T16:35:18;15.90;99.90
21403;DHT22;10862;51.886;17.078;2022-10-15T16:37:43;15.90;99.90
21403;DHT22;10862;51.886;17.078;2022-10-15T16:40:09;15.90;99.90
21403;DHT22;10862;51.886;17.078;2022-10-15T16:42:35;15.90;99.90
21403;DHT22;10862;51.886;17.078;2022-10-15T16:45:01;15.90;99.90
21403;DHT22;10862;51.886;17.078;2022-10-15T16:47:26;15.90;99.90
21403;DHT22;10862;51.886;17.078;2022-10-15T16:49:52;15.80;99.90
21403;DHT22;10862;51.886;17.078;2022-10-15T16:52:19;15.80;99.90
21403;DHT22;10862;51.886;17.078;2022-10-15T16:54:45;15.80;99.90
21403;DHT22;10862;51.886;17.078;2022-10-15T16:57:10;15.80;99.90
21403;DHT22;10862;51.886;17.078;2022-10-15T16:59:36;15.70;99.90